createdAt,value
2019-01-08T00:01:22.776Z,7.60
2019-01-08T00:03:52.921Z,7.60
2019-01-08T00:06:23.047Z,7.57
2019-01-08T00:08:53.107Z,7.57
2019-01-08T00:11:23.146Z,7.59
2019-01-08T00:13:53.322Z,7.60
2019-01-08T00:16:24.724Z,7.64
2019-01-08T00:18:54.982Z,7.71
2019-01-08T00:21:25.054Z,7.79
2019-01-08T00:23:55.108Z,7.87
2019-01-08T00:26:25.250Z,7.92
2019-01-08T00:28:55.424Z,7.94
2019-01-08T00:31:25.625Z,7.94
2019-01-08T00:33:55.689Z,7.92
2019-01-08T00:36:25.737Z,7.89
2019-01-08T00:38:55.910Z,7.87
2019-01-08T00:41:26.029Z,7.84
2019-01-08T00:43:56.108Z,7.80
2019-01-08T00:46:26.262Z,7.78
2019-01-08T00:48:56.329Z,7.77
2019-01-08T00:51:26.477Z,7.77
2019-01-08T00:53:56.533Z,7.80
2019-01-08T00:56:28.370Z,7.89
2019-01-08T00:58:58.505Z,7.99
2019-01-08T01:01:28.719Z,8.10
2019-01-08T01:03:58.869Z,8.17
2019-01-08T01:06:29.015Z,8.20
2019-01-08T01:08:59.167Z,8.22
2019-01-08T01:11:29.321Z,8.21
2019-01-08T01:13:59.488Z,8.26
2019-01-08T01:16:29.609Z,8.29
2019-01-08T01:19:03.419Z,8.13
2019-01-08T01:21:33.505Z,7.93
2019-01-08T01:24:05.172Z,7.87
2019-01-08T01:26:35.326Z,7.81
2019-01-08T01:29:05.515Z,7.78
2019-01-08T01:31:35.697Z,7.75
2019-01-08T01:34:06.683Z,7.73
2019-01-08T01:36:36.828Z,7.69
2019-01-08T01:39:07.964Z,7.65
2019-01-08T01:41:38.108Z,7.63
2019-01-08T01:44:08.318Z,7.60
2019-01-08T01:46:38.471Z,7.58
2019-01-08T01:49:08.601Z,7.58
2019-01-08T01:51:38.828Z,7.58
2019-01-08T01:54:08.872Z,7.55
2019-01-08T01:56:38.940Z,7.29
2019-01-08T01:59:09.239Z,7.09
2019-01-08T02:01:39.442Z,6.94
2019-01-08T02:04:09.566Z,6.91
2019-01-08T02:06:57.294Z,6.93
2019-01-08T02:09:27.393Z,7.01
2019-01-08T02:11:57.607Z,7.08
2019-01-08T02:14:27.649Z,7.17
2019-01-08T02:17:02.964Z,7.24
2019-01-08T02:19:33.070Z,7.31
2019-01-08T02:22:03.187Z,7.37
2019-01-08T02:24:41.597Z,7.44
2019-01-08T02:27:12.223Z,7.52
2019-01-08T02:29:42.344Z,7.60
2019-01-08T02:32:22.007Z,7.71
2019-01-08T02:34:52.184Z,7.79
2019-01-08T02:37:22.249Z,7.86
2019-01-08T02:39:52.375Z,7.94
2019-01-08T02:42:22.558Z,8.00
2019-01-08T02:45:08.107Z,8.04
2019-01-08T02:47:45.451Z,8.09
2019-01-08T02:50:15.613Z,8.13
2019-01-08T02:52:45.786Z,8.13
2019-01-08T02:55:15.851Z,8.14
2019-01-08T02:57:46.066Z,8.15
2019-01-08T03:00:19.955Z,8.14
2019-01-08T03:03:03.364Z,8.15
2019-01-08T03:05:33.527Z,8.17
2019-01-08T03:08:06.533Z,8.14
2019-01-08T03:10:36.665Z,8.13
2019-01-08T03:13:06.999Z,8.12
2019-01-08T03:15:37.047Z,8.12
2019-01-08T03:18:24.031Z,8.10
2019-01-08T03:20:54.285Z,8.11
2019-01-08T03:23:24.576Z,8.11
2019-01-08T03:25:54.690Z,8.12
2019-01-08T03:28:24.912Z,8.12
2019-01-08T03:30:55.103Z,8.12
2019-01-08T03:33:25.264Z,8.09
2019-01-08T03:35:55.389Z,8.08
2019-01-08T03:38:38.475Z,8.08
2019-01-08T03:41:08.765Z,8.06
2019-01-08T03:43:38.977Z,8.05
2019-01-08T03:46:09.123Z,8.06
2019-01-08T03:48:39.360Z,8.06
2019-01-08T03:51:09.523Z,8.05
2019-01-08T03:53:39.786Z,8.06
2019-01-08T03:56:09.928Z,8.09
2019-01-08T03:58:52.954Z,8.07
2019-01-08T04:01:24.419Z,8.07
2019-01-08T04:03:54.582Z,8.07
2019-01-08T04:06:24.815Z,8.07
2019-01-08T04:08:54.958Z,8.09
2019-01-08T04:11:25.064Z,8.07
2019-01-08T04:13:57.548Z,8.07
2019-01-08T04:16:34.824Z,8.09
2019-01-08T04:23:49.635Z,8.03
2019-01-08T04:26:25.788Z,8.01
2019-01-08T04:28:59.118Z,8.04
2019-01-08T04:31:29.331Z,8.06
2019-01-08T04:34:07.780Z,8.04
2019-01-08T04:36:36.745Z,8.02
2019-01-08T04:39:12.510Z,7.99
2019-01-08T04:41:48.705Z,8.00
2019-01-08T04:44:20.285Z,8.01
2019-01-08T04:46:50.368Z,7.99
2019-01-08T04:49:31.332Z,7.97
2019-01-08T04:52:01.378Z,7.87
2019-01-08T04:54:31.434Z,7.73
2019-01-08T04:57:04.044Z,7.64
2019-01-08T04:59:58.977Z,7.61
2019-01-08T05:02:35.799Z,7.62
2019-01-08T05:05:06.815Z,7.72
2019-01-08T05:07:36.956Z,7.83
2019-01-08T05:10:07.274Z,7.90
2019-01-08T05:13:04.209Z,7.97
2019-01-08T05:15:37.146Z,8.04
2019-01-08T05:18:10.374Z,8.03
2019-01-08T05:20:40.654Z,8.05
2019-01-08T05:23:10.745Z,8.09
2019-01-08T05:25:43.391Z,8.12
2019-01-08T05:28:27.196Z,8.16
2019-01-08T05:30:58.463Z,8.18
2019-01-08T05:33:28.766Z,8.17
2019-01-08T05:36:01.085Z,8.18
2019-01-08T05:38:31.262Z,8.16
2019-01-08T05:41:01.496Z,8.17
2019-01-08T05:43:36.309Z,8.18
2019-01-08T05:46:29.485Z,8.14
2019-01-08T05:49:01.472Z,8.07
2019-01-08T05:51:31.739Z,8.00
2019-01-08T05:54:01.888Z,7.99
2019-01-08T05:57:01.132Z,8.00
2019-01-08T05:59:43.563Z,8.02
2019-01-08T06:02:13.745Z,8.06
2019-01-08T06:04:43.917Z,7.97
2019-01-08T06:07:47.043Z,7.77
2019-01-08T06:10:33.839Z,7.63
2019-01-08T06:13:25.428Z,7.46
2019-01-08T06:16:19.849Z,7.38
2019-01-08T06:18:50.001Z,7.29
2019-01-08T06:21:35.218Z,7.24
2019-01-08T06:24:16.720Z,7.21
2019-01-08T06:26:49.339Z,7.22
2019-01-08T06:29:19.571Z,7.23
2019-01-08T06:31:49.655Z,7.22
2019-01-08T06:34:19.798Z,7.22
2019-01-08T06:36:59.976Z,7.20
2019-01-08T06:39:45.149Z,7.19
2019-01-08T06:42:15.282Z,7.19
2019-01-08T06:44:45.329Z,7.20
2019-01-08T06:47:15.549Z,7.22
2019-01-08T06:50:17.475Z,7.21
2019-01-08T06:52:55.063Z,7.22
2019-01-08T06:55:25.259Z,7.22
2019-01-08T06:57:55.362Z,7.22
2019-01-08T07:00:33.022Z,7.22
2019-01-08T07:03:02.817Z,7.24
2019-01-08T07:05:32.914Z,7.26
2019-01-08T07:08:26.642Z,7.25
2019-01-08T07:10:56.677Z,7.26
2019-01-08T07:13:32.533Z,7.26
2019-01-08T07:16:02.682Z,7.25
2019-01-08T07:18:32.769Z,7.27
2019-01-08T07:21:02.966Z,7.28
2019-01-08T07:23:46.488Z,7.33
2019-01-08T07:26:16.841Z,7.34
2019-01-08T07:29:00.792Z,7.38
2019-01-08T07:31:31.022Z,7.40
2019-01-08T07:34:02.742Z,7.47
2019-01-08T07:36:32.873Z,7.56
2019-01-08T07:39:11.543Z,7.64
2019-01-08T07:41:45.957Z,7.70
2019-01-08T07:44:21.825Z,7.77
2019-01-08T07:46:51.953Z,7.83
2019-01-08T07:49:22.075Z,7.84
2019-01-08T07:51:52.243Z,7.82
2019-01-08T07:54:22.748Z,7.80
2019-01-08T07:56:58.293Z,7.77
2019-01-08T07:59:38.040Z,7.78
2019-01-08T08:02:08.162Z,7.80
2019-01-08T08:04:38.298Z,7.82
2019-01-08T08:07:08.428Z,7.84
2019-01-08T08:09:38.564Z,7.87
2019-01-08T08:12:08.608Z,7.94
2019-01-08T08:14:38.773Z,8.01
2019-01-08T08:17:11.842Z,8.07
2019-01-08T08:19:55.620Z,8.12
2019-01-08T08:22:25.770Z,8.18
2019-01-08T08:24:56.109Z,8.20
2019-01-08T08:27:32.723Z,8.25
2019-01-08T08:30:07.060Z,8.28
2019-01-08T08:32:41.429Z,8.33
2019-01-08T08:35:20.491Z,8.35
2019-01-08T08:37:50.562Z,8.40
2019-01-08T08:40:20.688Z,8.42
2019-01-08T08:42:50.822Z,8.45
2019-01-08T08:45:21.009Z,8.45
2019-01-08T08:47:51.243Z,8.45
2019-01-08T08:50:50.474Z,8.48
2019-01-08T08:53:20.531Z,8.49
2019-01-08T08:55:50.608Z,8.50
2019-01-08T08:58:43.569Z,8.56
2019-01-08T09:01:13.700Z,8.54
2019-01-08T09:03:52.437Z,8.43
2019-01-08T09:06:25.094Z,8.31
2019-01-08T09:08:57.988Z,8.24
2019-01-08T09:11:28.190Z,8.19
2019-01-08T09:14:03.117Z,8.22
2019-01-08T09:16:39.830Z,8.23
2019-01-08T09:19:19.066Z,8.23
2019-01-08T09:21:49.403Z,8.23
2019-01-08T09:24:19.479Z,8.25
2019-01-08T09:26:52.247Z,8.29
2019-01-08T09:29:36.082Z,8.18
2019-01-08T09:32:06.712Z,8.04
2019-01-08T09:34:43.993Z,7.96
2019-01-08T09:37:22.365Z,7.90
2019-01-08T09:40:10.097Z,7.86
2019-01-08T09:42:40.331Z,7.80
2019-01-08T09:45:10.844Z,7.76
2019-01-08T09:47:41.283Z,7.87
2019-01-08T09:50:26.502Z,8.00
2019-01-08T09:53:04.757Z,8.07
2019-01-08T09:55:36.829Z,8.13
2019-01-08T09:58:10.034Z,8.18
2019-01-08T10:00:40.161Z,8.24
2019-01-08T10:03:11.415Z,8.31
2019-01-08T10:05:50.817Z,8.36
2019-01-08T10:08:33.568Z,8.37
2019-01-08T10:11:03.750Z,8.41
2019-01-08T10:13:33.991Z,8.46
2019-01-08T10:16:04.337Z,8.48
2019-01-08T10:18:36.332Z,8.48
2019-01-08T10:21:30.915Z,8.49
2019-01-08T10:24:02.071Z,8.52
2019-01-08T10:26:32.225Z,8.55
2019-01-08T10:29:02.395Z,8.61
2019-01-08T10:31:32.881Z,8.67
2019-01-08T10:34:03.042Z,8.73
2019-01-08T10:36:33.163Z,8.55
2019-01-08T10:39:19.246Z,8.25
2019-01-08T10:41:49.502Z,8.06
2019-01-08T10:44:19.546Z,7.93
2019-01-08T10:46:49.850Z,7.98
2019-01-08T10:49:20.109Z,8.13
2019-01-08T10:51:50.348Z,8.26
2019-01-08T10:54:20.687Z,8.37
2019-01-08T10:56:51.291Z,8.07
2019-01-08T10:59:29.533Z,7.63
2019-01-08T11:01:59.748Z,7.40
2019-01-08T11:04:29.882Z,7.27
2019-01-08T11:07:00.067Z,7.21
2019-01-08T11:09:30.216Z,7.18
2019-01-08T11:12:00.272Z,7.20
2019-01-08T11:14:59.888Z,7.28
2019-01-08T11:17:45.933Z,7.50
2019-01-08T11:20:16.146Z,7.77
2019-01-08T11:23:09.402Z,7.97
2019-01-08T11:25:44.465Z,8.17
2019-01-08T11:28:14.621Z,8.30
2019-01-08T11:30:44.680Z,8.35
2019-01-08T11:33:14.918Z,8.38
2019-01-08T11:35:57.344Z,8.70
2019-01-08T11:38:36.778Z,8.65
2019-01-08T11:41:14.014Z,8.59
2019-01-08T11:43:45.975Z,8.56
2019-01-08T11:46:16.275Z,8.55
2019-01-08T11:49:04.439Z,8.54
2019-01-08T11:51:41.754Z,8.48
2019-01-08T11:54:17.570Z,8.51
2019-01-08T11:56:49.161Z,8.61
2019-01-08T11:59:23.895Z,8.87
2019-01-08T12:01:57.159Z,8.78
2019-01-08T12:04:25.028Z,8.36
2019-01-08T12:06:55.082Z,7.94
2019-01-08T12:10:29.311Z,7.77
2019-01-08T12:12:27.807Z,7.67
2019-01-08T12:14:57.970Z,7.57
2019-01-08T12:17:29.981Z,7.51
2019-01-08T12:20:00.269Z,7.44
2019-01-08T12:22:30.406Z,7.42
2019-01-08T12:25:29.611Z,7.34
2019-01-08T12:27:59.809Z,7.29
2019-01-08T12:30:30.044Z,7.33
2019-01-08T12:33:00.083Z,7.36
2019-01-08T12:35:30.153Z,7.43
2019-01-08T12:38:00.338Z,7.63
2019-01-08T12:40:48.707Z,7.69
2019-01-08T12:43:18.848Z,7.64
2019-01-08T12:45:49.017Z,7.63
2019-01-08T12:48:19.106Z,7.70
2019-01-08T12:50:49.149Z,7.87
2019-01-08T12:53:19.264Z,8.09
2019-01-08T12:55:49.488Z,8.22
2019-01-08T12:58:22.641Z,8.34
2019-01-08T13:01:03.393Z,8.43
2019-01-08T13:03:33.506Z,8.45
2019-01-08T13:06:03.720Z,8.48
2019-01-08T13:08:33.786Z,8.38
2019-01-08T13:11:07.520Z,8.30
2019-01-08T13:13:37.550Z,8.33
2019-01-08T13:16:07.649Z,8.53
2019-01-08T13:19:00.145Z,8.72
2019-01-08T13:21:37.910Z,8.75
2019-01-08T13:24:08.114Z,8.98
2019-01-08T13:26:38.321Z,9.06
2019-01-08T13:29:08.365Z,8.92
2019-01-08T13:31:39.227Z,8.77
2019-01-08T13:34:24.493Z,8.67
2019-01-08T13:36:54.664Z,8.68
2019-01-08T13:39:27.966Z,8.64
2019-01-08T13:41:58.213Z,8.60
2019-01-08T13:44:37.799Z,8.60
2019-01-08T13:47:09.727Z,8.61
2019-01-08T13:49:40.085Z,8.58
2019-01-08T13:52:17.563Z,8.54
2019-01-08T13:54:55.467Z,8.52
2019-01-08T13:57:31.122Z,8.44
2019-01-08T14:00:01.377Z,8.38
2019-01-08T14:02:32.112Z,8.30
2019-01-08T14:05:22.453Z,8.28
2019-01-08T14:08:20.610Z,8.33
2019-01-08T14:10:56.483Z,8.38
2019-01-08T14:13:38.982Z,8.35
2019-01-08T14:16:17.174Z,8.24
2019-01-08T14:18:52.601Z,8.13
2019-01-08T14:21:22.717Z,8.02
2019-01-08T14:23:53.020Z,7.78
2019-01-08T14:26:23.247Z,7.64
2019-01-08T14:28:53.405Z,7.59
2019-01-08T14:31:26.549Z,7.60
2019-01-08T14:34:05.553Z,7.71
2019-01-08T14:36:35.714Z,7.85
2019-01-08T14:39:07.984Z,7.97
2019-01-08T14:41:38.183Z,8.09
2019-01-08T14:44:08.388Z,8.11
2019-01-08T14:46:38.576Z,8.12
2019-01-08T14:49:14.431Z,8.12
2019-01-08T14:51:49.222Z,7.96
2019-01-08T14:54:19.445Z,7.63
2019-01-08T14:56:49.603Z,7.31
2019-01-08T14:59:21.667Z,7.10
2019-01-08T15:01:53.456Z,6.91
2019-01-08T15:04:25.193Z,6.73
2019-01-08T15:06:55.421Z,6.54
2019-01-08T15:09:26.787Z,6.45
2019-01-08T15:12:09.984Z,6.43
2019-01-08T15:14:40.246Z,6.51
2019-01-08T15:17:12.823Z,6.59
2019-01-08T15:19:50.522Z,6.61
2019-01-08T15:22:20.113Z,6.60
2019-01-08T15:24:53.336Z,6.60
2019-01-08T15:27:34.866Z,6.63
2019-01-08T15:30:09.060Z,6.64
2019-01-08T15:32:39.213Z,6.62
2019-01-08T15:35:09.472Z,6.61
2019-01-08T15:37:51.913Z,6.63
2019-01-08T15:40:22.222Z,6.69
2019-01-08T15:42:59.549Z,6.72
2019-01-08T15:45:29.713Z,6.73
2019-01-08T15:47:59.856Z,6.75
2019-01-08T15:50:30.040Z,6.77
2019-01-08T15:53:01.928Z,6.79
2019-01-08T15:55:32.141Z,6.83
2019-01-08T15:58:02.256Z,6.89
2019-01-08T16:00:32.482Z,6.99
2019-01-08T16:03:14.249Z,7.02
2019-01-08T16:05:44.395Z,7.05
2019-01-08T16:08:37.555Z,7.08
2019-01-08T16:11:07.799Z,7.11
2019-01-08T16:13:37.985Z,7.13
2019-01-08T16:16:19.405Z,7.17
2019-01-08T16:18:59.956Z,7.21
2019-01-08T16:21:35.095Z,7.26
2019-01-08T16:28:01.729Z,6.84
2019-01-08T16:30:50.565Z,6.25
2019-01-08T16:33:38.894Z,5.89
2019-01-08T16:36:12.335Z,5.83
2019-01-08T16:38:54.352Z,5.85
2019-01-08T16:41:37.002Z,5.92
2019-01-08T16:44:07.257Z,5.97
2019-01-08T16:46:44.859Z,6.03
2019-01-08T16:49:32.945Z,6.00
2019-01-08T16:52:13.976Z,5.97
2019-01-08T16:54:43.627Z,5.96
2019-01-08T16:57:27.836Z,5.97
2019-01-08T17:00:01.184Z,5.95
2019-01-08T17:02:36.461Z,5.96
2019-01-08T17:05:44.266Z,5.94
2019-01-08T17:08:24.636Z,5.95
2019-01-08T17:10:55.085Z,5.92
2019-01-08T17:14:37.856Z,5.92
2019-01-08T17:18:02.073Z,5.89
2019-01-08T17:21:11.376Z,5.81
2019-01-08T17:24:03.929Z,5.85
2019-01-08T17:29:45.379Z,5.83
2019-01-08T17:32:49.204Z,5.70
2019-01-08T17:35:30.023Z,5.51
2019-01-08T17:38:11.429Z,5.38
2019-01-08T17:40:54.111Z,5.32
2019-01-08T17:43:47.153Z,5.37
2019-01-08T17:46:31.394Z,5.53
2019-01-08T17:49:05.946Z,5.72
2019-01-08T17:51:59.513Z,5.85
2019-01-08T17:54:40.681Z,5.99
2019-01-08T17:57:44.536Z,6.14
2019-01-08T18:03:23.311Z,6.18
2019-01-08T18:06:45.823Z,5.96
2019-01-08T18:09:32.554Z,5.79
2019-01-08T18:12:42.697Z,5.68
2019-01-08T18:16:08.104Z,5.68
2019-01-08T18:19:15.341Z,5.72
2019-01-08T18:21:51.217Z,5.77
2019-01-08T18:24:33.183Z,5.69
2019-01-08T18:27:19.933Z,5.63
2019-01-08T18:29:58.318Z,5.51
2019-01-08T18:32:48.706Z,5.43
2019-01-08T18:35:37.494Z,5.37
2019-01-08T18:38:23.489Z,5.35
2019-01-08T18:40:58.785Z,5.41
2019-01-08T18:43:33.029Z,5.44
2019-01-08T18:46:03.286Z,5.43
2019-01-08T18:48:50.439Z,5.40
2019-01-08T18:51:44.879Z,5.33
2019-01-08T18:54:15.224Z,5.29
2019-01-08T18:56:45.613Z,5.34
2019-01-08T18:59:35.619Z,5.45
2019-01-08T19:02:15.069Z,5.58
2019-01-08T19:04:47.228Z,5.67
2019-01-08T19:07:26.867Z,5.75
2019-01-08T19:10:38.349Z,5.75
2019-01-08T19:13:10.938Z,5.72
2019-01-08T19:15:41.597Z,5.72
2019-01-08T19:18:12.029Z,5.70
2019-01-08T19:21:32.047Z,5.66
2019-01-08T19:24:07.712Z,5.61
2019-01-08T19:26:43.293Z,5.64
2019-01-08T19:29:47.977Z,5.75
2019-01-08T19:32:30.451Z,5.88
2019-01-08T19:35:31.213Z,5.84
2019-01-08T19:37:55.330Z,5.73
2019-01-08T19:40:37.288Z,5.69
2019-01-08T19:43:07.742Z,5.61
2019-01-08T19:46:07.899Z,5.56
2019-01-08T19:48:46.150Z,5.51
2019-01-08T19:51:34.829Z,5.44
2019-01-08T19:54:27.980Z,5.41
2019-01-08T19:57:00.998Z,5.48
2019-01-08T19:59:42.155Z,5.52
2019-01-08T20:02:29.981Z,5.59
2019-01-08T20:05:16.296Z,5.57
2019-01-08T20:07:51.510Z,5.49
2019-01-08T20:10:53.894Z,5.39
2019-01-08T20:13:40.266Z,5.33
2019-01-08T20:17:30.889Z,5.29
2019-01-08T20:20:44.773Z,5.28
2019-01-08T20:23:30.038Z,5.29
2019-01-08T20:26:42.352Z,5.23
2019-01-08T20:29:10.296Z,5.27
2019-01-08T20:32:06.003Z,5.29
2019-01-08T20:34:54.524Z,5.33
2019-01-08T20:37:24.912Z,5.42
2019-01-08T20:39:55.359Z,5.49
2019-01-08T20:45:57.408Z,5.60
2019-01-08T20:52:33.416Z,5.79
2019-01-08T20:55:35.364Z,5.81
2019-01-08T20:58:07.510Z,5.80
2019-01-08T21:00:38.358Z,5.80
2019-01-08T21:03:10.686Z,5.85
2019-01-08T21:05:51.649Z,5.91
2019-01-08T21:08:32.964Z,5.97
2019-01-08T21:11:03.307Z,6.02
2019-01-08T21:13:33.584Z,6.05
2019-01-08T21:16:03.839Z,6.13
2019-01-08T21:18:42.270Z,6.14
2019-01-08T21:21:24.891Z,6.09
2019-01-08T21:23:55.380Z,6.00
2019-01-08T21:26:54.441Z,5.92
2019-01-08T21:29:34.797Z,5.86
2019-01-08T21:32:14.307Z,5.91
2019-01-08T21:34:44.801Z,5.93
2019-01-08T21:37:15.203Z,5.92
2019-01-08T21:39:47.019Z,5.90
2019-01-08T21:42:17.390Z,5.90
2019-01-08T21:44:53.452Z,5.90
2019-01-08T21:47:33.456Z,5.91
2019-01-08T21:50:03.915Z,5.92
2019-01-08T21:52:34.162Z,5.92
2019-01-08T21:55:04.478Z,5.76
2019-01-08T21:57:34.783Z,5.62
2019-01-08T22:00:05.905Z,5.50
2019-01-08T22:02:36.141Z,5.43
2019-01-08T22:05:22.984Z,5.40
2019-01-08T22:07:53.471Z,5.38
2019-01-08T22:10:23.845Z,5.31
2019-01-08T22:12:54.259Z,5.23
2019-01-08T22:15:24.602Z,5.17
2019-01-08T22:17:55.083Z,5.17
2019-01-08T22:20:40.133Z,5.20
2019-01-08T22:23:19.635Z,5.29
2019-01-08T22:25:49.939Z,5.38
2019-01-08T22:28:20.132Z,5.48
2019-01-08T22:30:54.015Z,5.55
2019-01-08T22:34:00.729Z,5.62
2019-01-08T22:36:32.526Z,5.70
2019-01-08T22:39:05.941Z,5.81
2019-01-08T22:41:36.471Z,5.89
2019-01-08T22:44:13.449Z,5.97
2019-01-08T22:46:43.632Z,6.04
2019-01-08T22:49:28.090Z,5.99
2019-01-08T22:51:58.581Z,5.96
2019-01-08T22:54:28.746Z,5.92
2019-01-08T22:56:58.998Z,5.89
2019-01-08T22:59:40.277Z,5.87
2019-01-08T23:02:21.842Z,5.87
2019-01-08T23:05:17.288Z,5.85
2019-01-08T23:07:53.690Z,5.82
2019-01-08T23:10:23.935Z,5.86
2019-01-08T23:12:54.364Z,5.92
2019-01-08T23:15:28.658Z,5.99
2019-01-08T23:18:11.811Z,6.03
2019-01-08T23:20:56.946Z,6.07
2019-01-08T23:23:27.238Z,6.02
2019-01-08T23:25:57.428Z,5.98
2019-01-08T23:28:29.711Z,5.95
2019-01-08T23:31:12.231Z,5.94
2019-01-08T23:33:51.993Z,5.93
2019-01-08T23:36:23.474Z,5.96
2019-01-08T23:40:33.832Z,5.98
2019-01-08T23:42:49.596Z,5.96
2019-01-08T23:45:22.682Z,5.92
2019-01-08T23:47:53.000Z,5.99
2019-01-08T23:50:23.256Z,6.02
2019-01-08T23:53:07.504Z,5.98
2019-01-08T23:55:50.849Z,5.95
2019-01-08T23:58:22.112Z,5.92
